Skiros, Greece
Current Conditions -  °F | °C
As of 5:50 PM on Saturday 25 Oct 2014 (Local Time) from LGSY Reporting Station
Broken Clouds Broken Clouds  
Wind Chill: 59°   Ceiling: 1800
Heat Index: 59°   Visibility: 6mi
Dew Point: 50°   Wind: 15mph
Humidity: 72%   Direction: 280°W
Pressure: 29.83"   Gusts: NA
Location:  38.9°N, 24.56°E
Report Text: LGSY 251450Z 28013KT 9999 BKN018 BKN080 15/10 Q1010 BLU
Loading
Personal Weather Stations






























Interactive Weather Map
Tropical Storm Tracking
New forecast layout! Learn more

10-Day Weather Forecast

Advertisements
Track Severe Weather on mobile